createdAt,value
2023-08-19T00:01:23.457Z,96459.22
2023-08-19T00:03:50.220Z,96461.16
2023-08-19T00:06:16.845Z,96456.53
2023-08-19T00:08:43.496Z,96465.41
2023-08-19T00:11:10.091Z,96461.94
2023-08-19T00:13:36.694Z,96460.00
2023-08-19T00:16:03.334Z,96459.66
2023-08-19T00:18:29.979Z,96461.59
2023-08-19T00:20:56.576Z,96457.38
2023-08-19T00:23:23.150Z,96460.47
2023-08-19T00:25:49.754Z,96459.38
2023-08-19T00:28:16.376Z,96455.13
2023-08-19T00:30:43.048Z,96458.22
2023-08-19T00:33:09.667Z,96459.00
2023-08-19T00:35:36.289Z,96466.72
2023-08-19T00:38:02.887Z,96464.03
2023-08-19T00:40:29.519Z,96462.56
2023-08-19T00:42:56.132Z,96470.28
2023-08-19T00:45:22.733Z,96470.66
2023-08-19T00:47:49.334Z,96470.25
2023-08-19T00:50:15.944Z,96476.81
2023-08-19T00:52:42.551Z,96476.06
2023-08-19T00:55:09.165Z,96470.28
2023-08-19T00:57:35.770Z,96468.34
2023-08-19T01:00:02.380Z,96470.28
2023-08-19T01:02:29.079Z,96471.09
2023-08-19T01:04:55.700Z,96472.66
2023-08-19T01:07:22.290Z,96481.91
2023-08-19T01:09:48.893Z,96481.53
2023-08-19T01:12:15.509Z,96483.47
2023-08-19T01:14:42.147Z,96485.00
2023-08-19T01:17:08.756Z,96483.47
2023-08-19T01:19:35.363Z,96484.28
2023-08-19T01:22:01.949Z,96483.94
2023-08-19T01:24:28.546Z,96480.06
2023-08-19T01:26:55.144Z,96477.00
2023-08-19T01:29:21.753Z,96475.06
2023-08-19T01:31:48.421Z,96476.66
2023-08-19T01:34:15.055Z,96478.97
2023-08-19T01:36:41.656Z,96487.06
2023-08-19T01:39:08.293Z,96487.47
2023-08-19T01:41:34.890Z,96492.13
2023-08-19T01:44:01.500Z,96488.66
2023-08-19T01:46:28.093Z,96491.75
2023-08-19T01:48:54.717Z,96494.84
2023-08-19T01:51:21.340Z,96494.84
2023-08-19T01:53:47.947Z,96499.50
2023-08-19T01:56:14.549Z,96496.78
2023-08-19T01:58:41.142Z,96506.81
2023-08-19T02:01:07.764Z,96501.84
2023-08-19T02:03:34.407Z,96501.06
2023-08-19T02:06:01.005Z,96502.63
2023-08-19T02:08:27.613Z,96501.47
2023-08-19T02:10:54.208Z,96501.09
2023-08-19T02:13:20.805Z,96504.56
2023-08-19T02:15:47.400Z,96504.97
2023-08-19T02:18:14.030Z,96504.97
2023-08-19T02:20:40.656Z,96507.25
2023-08-19T02:23:07.250Z,96499.22
2023-08-19T02:25:33.867Z,96514.59
2023-08-19T02:28:00.468Z,96505.38
2023-08-19T02:30:27.064Z,96516.56
2023-08-19T02:32:53.682Z,96513.47
2023-08-19T02:35:20.306Z,96516.97
2023-08-19T02:37:46.920Z,96513.91
2023-08-19T02:40:13.547Z,96516.16
2023-08-19T02:42:40.214Z,96515.81
2023-08-19T02:45:06.990Z,96518.09
2023-08-19T02:47:33.852Z,96514.28
2023-08-19T02:50:00.697Z,96509.28
2023-08-19T02:52:27.319Z,96517.38
2023-08-19T02:54:53.915Z,96511.22
2023-08-19T02:57:20.507Z,96510.88
2023-08-19T02:59:47.108Z,96513.19
2023-08-19T03:02:13.717Z,96513.56
2023-08-19T03:04:40.339Z,96515.13
2023-08-19T03:07:06.946Z,96514.75
2023-08-19T03:09:33.543Z,96514.41
2023-08-19T03:12:00.158Z,96514.75
2023-08-19T03:14:26.745Z,96512.06
2023-08-19T03:16:53.369Z,96512.47
2023-08-19T03:19:19.977Z,96512.47
2023-08-19T03:21:46.593Z,96511.34
2023-08-19T03:24:13.283Z,96510.63
2023-08-19T03:26:39.883Z,96512.91
2023-08-19T03:29:06.510Z,96513.31
2023-08-19T03:31:33.124Z,96518.72
2023-08-19T03:33:59.714Z,96518.28
2023-08-19T03:36:26.312Z,96514.09
2023-08-19T03:38:52.899Z,96514.09
2023-08-19T03:41:19.488Z,96516.81
2023-08-19T03:43:46.090Z,96516.41
2023-08-19T03:46:12.746Z,96523.38
2023-08-19T03:48:39.392Z,96524.13
2023-08-19T03:51:06.026Z,96521.84
2023-08-19T03:53:32.616Z,96525.34
2023-08-19T03:55:59.203Z,96531.88
2023-08-19T03:58:25.825Z,96527.66
2023-08-19T04:00:52.429Z,96526.16
2023-08-19T04:03:19.039Z,96536.53
2023-08-19T04:05:45.628Z,96533.47
2023-08-19T04:08:12.237Z,96536.19
2023-08-19T04:10:38.836Z,96538.09
2023-08-19T04:13:05.539Z,96534.63
2023-08-19T04:15:32.136Z,96532.72
2023-08-19T04:17:58.783Z,96528.09
2023-08-19T04:20:25.450Z,96526.94
2023-08-19T04:22:52.066Z,96536.59
2023-08-19T04:25:18.675Z,96541.25
2023-08-19T04:27:45.295Z,96541.59
2023-08-19T04:30:11.897Z,96547.75
2023-08-19T04:32:38.522Z,96554.72
2023-08-19T04:35:05.200Z,96552.81
2023-08-19T04:37:31.954Z,96547.03
2023-08-19T04:39:58.777Z,96557.44
2023-08-19T04:42:25.379Z,96557.44
2023-08-19T04:44:51.976Z,96552.41
2023-08-19T04:47:18.568Z,96553.56
2023-08-19T04:49:45.182Z,96562.47
2023-08-19T04:52:11.798Z,96572.84
2023-08-19T04:54:38.408Z,96576.72
2023-08-19T04:57:05.062Z,96579.81
2023-08-19T04:59:31.701Z,96579.03
2023-08-19T05:01:58.293Z,96581.34
2023-08-19T05:04:25.081Z,96584.41
2023-08-19T05:06:51.708Z,96585.59
2023-08-19T05:09:18.299Z,96591.72
2023-08-19T05:11:44.988Z,96594.06
2023-08-19T05:14:11.598Z,96587.50
2023-08-19T05:16:38.215Z,96589.06
2023-08-19T05:19:04.855Z,96587.19
2023-08-19T05:21:31.453Z,96583.72
2023-08-19T05:23:58.057Z,96593.69
2023-08-19T05:26:24.656Z,96606.00
2023-08-19T05:28:51.254Z,96606.00
2023-08-19T05:31:17.905Z,96607.16
2023-08-19T05:33:44.529Z,96613.72
2023-08-19T05:36:11.120Z,96614.47
2023-08-19T05:38:37.754Z,96613.72
2023-08-19T05:41:04.354Z,96609.09
2023-08-19T05:43:30.978Z,96609.53
2023-08-19T05:45:57.643Z,96615.66
2023-08-19T05:48:24.265Z,96619.88
2023-08-19T05:50:50.861Z,96614.91
2023-08-19T05:53:17.456Z,96621.47
2023-08-19T05:55:44.058Z,96622.25
2023-08-19T05:58:10.666Z,96624.16
2023-08-19T06:00:37.281Z,96626.84
2023-08-19T06:03:03.967Z,96637.25
2023-08-19T06:05:30.654Z,96646.06
2023-08-19T06:07:57.245Z,96643.34
2023-08-19T06:10:23.847Z,96639.53
2023-08-19T06:12:52.105Z,96649.56
2023-08-19T06:15:19.881Z,96647.66
2023-08-19T06:17:46.488Z,96641.13
2023-08-19T06:20:13.107Z,96653.06
2023-08-19T06:22:39.729Z,96663.44
2023-08-19T06:25:06.329Z,96653.06
2023-08-19T06:27:33.082Z,96656.09
2023-08-19T06:29:59.889Z,96660.28
2023-08-19T06:32:26.488Z,96662.59
2023-08-19T06:34:53.122Z,96663.75
2023-08-19T06:37:19.719Z,96667.66
2023-08-19T06:39:46.322Z,96670.34
2023-08-19T06:42:12.914Z,96664.97
2023-08-19T06:44:39.516Z,96668.81
2023-08-19T06:47:06.268Z,96670.72
2023-08-19T06:49:32.917Z,96673.03
2023-08-19T06:51:59.516Z,96664.19
2023-08-19T06:54:26.114Z,96671.88
2023-08-19T06:56:52.723Z,96671.88
2023-08-19T06:59:19.341Z,96672.28
2023-08-19T07:01:45.957Z,96674.59
2023-08-19T07:04:12.560Z,96674.19
2023-08-19T07:06:39.164Z,96686.91
2023-08-19T07:11:32.520Z,96685.75
2023-08-19T07:13:59.162Z,96683.41
2023-08-19T07:16:25.784Z,96693.41
2023-08-19T07:18:52.451Z,96684.94
2023-08-19T07:21:19.052Z,96692.25
2023-08-19T07:23:45.666Z,96683.78
2023-08-19T07:26:12.278Z,96688.00
2023-08-19T07:28:38.898Z,96686.06
2023-08-19T07:31:05.580Z,96688.78
2023-08-19T07:33:32.278Z,96689.94
2023-08-19T07:35:58.916Z,96687.25
2023-08-19T07:38:25.600Z,96689.16
2023-08-19T07:40:52.219Z,96689.94
2023-08-19T07:43:18.863Z,96694.56
2023-08-19T07:45:45.511Z,96692.66
2023-08-19T07:48:12.267Z,96691.84
2023-08-19T07:50:38.902Z,96690.34
2023-08-19T07:53:05.530Z,96695.72
2023-08-19T07:55:32.131Z,96699.59
2023-08-19T07:57:58.759Z,96701.47
2023-08-19T08:00:25.363Z,96703.81
2023-08-19T08:02:52.041Z,96708.03
2023-08-19T08:05:18.757Z,96704.59
2023-08-19T08:07:45.437Z,96712.25
2023-08-19T08:10:12.057Z,96706.53
2023-08-19T08:12:38.741Z,96713.84
2023-08-19T08:15:05.344Z,96714.97
2023-08-19T08:17:32.246Z,96713.41
2023-08-19T08:19:59.167Z,96718.81
2023-08-19T08:22:25.784Z,96710.72
2023-08-19T08:24:52.394Z,96705.31
2023-08-19T08:27:19.001Z,96713.03
2023-08-19T08:29:45.621Z,96713.41
2023-08-19T08:32:12.222Z,96708.03
2023-08-19T08:34:38.818Z,96705.72
2023-08-19T08:37:05.419Z,96717.69
2023-08-19T08:39:32.010Z,96723.84
2023-08-19T08:41:58.635Z,96725.78
2023-08-19T08:44:25.245Z,96720.78
2023-08-19T08:46:51.841Z,96722.31
2023-08-19T08:49:18.439Z,96723.47
2023-08-19T08:51:45.045Z,96720.34
2023-08-19T08:54:11.649Z,96721.50
2023-08-19T08:56:38.252Z,96724.22
2023-08-19T08:59:04.859Z,96719.59
2023-08-19T09:01:31.752Z,96725.41
2023-08-19T09:03:58.373Z,96721.94
2023-08-19T09:06:27.057Z,96723.09
2023-08-19T09:08:54.002Z,96721.16
2023-08-19T09:11:20.613Z,96722.28
2023-08-19T09:13:47.216Z,96720.34
2023-08-19T09:16:13.822Z,96717.66
2023-08-19T09:18:40.436Z,96718.44
2023-08-19T09:21:07.035Z,96716.13
2023-08-19T09:23:33.654Z,96713.41
2023-08-19T09:26:00.269Z,96714.59
2023-08-19T09:28:26.859Z,96708.78
2023-08-19T09:30:53.536Z,96708.41
2023-08-19T09:33:20.251Z,96713.81
2023-08-19T09:35:58.757Z,96716.88
2023-08-19T09:38:26.342Z,96714.56
2023-08-19T09:40:52.974Z,96713.03
2023-08-19T09:43:19.611Z,96709.94
2023-08-19T09:45:46.211Z,96715.72
2023-08-19T09:48:12.807Z,96709.19
2023-08-19T09:50:39.429Z,96701.47
2023-08-19T09:53:06.027Z,96705.28
2023-08-19T09:55:32.640Z,96704.91
2023-08-19T09:57:59.243Z,96696.41
2023-08-19T10:00:25.889Z,96696.84
2023-08-19T10:02:52.615Z,96697.22
2023-08-19T10:05:19.317Z,96694.84
2023-08-19T10:07:45.909Z,96694.41
2023-08-19T10:10:12.535Z,96704.88
2023-08-19T10:12:39.160Z,96698.69
2023-08-19T10:15:05.756Z,96702.19
2023-08-19T10:17:32.361Z,96702.16
2023-08-19T10:19:58.973Z,96709.09
2023-08-19T10:22:25.583Z,96704.88
2023-08-19T10:24:52.184Z,96692.56
2023-08-19T10:27:18.807Z,96691.00
2023-08-19T10:29:45.409Z,96693.66
2023-08-19T10:32:12.017Z,96697.13
2023-08-19T10:34:38.605Z,96688.66
2023-08-19T10:37:05.219Z,96684.81
2023-08-19T10:39:31.817Z,96682.84
2023-08-19T10:41:58.431Z,96682.84
2023-08-19T10:44:25.027Z,96681.25
2023-08-19T10:46:51.646Z,96677.06
2023-08-19T10:49:18.243Z,96676.63
2023-08-19T10:51:44.838Z,96672.44
2023-08-19T10:54:11.445Z,96675.47
2023-08-19T10:56:38.050Z,96684.34
2023-08-19T10:59:04.645Z,96673.56
2023-08-19T11:01:31.258Z,96680.88
2023-08-19T11:03:58.042Z,96683.56
2023-08-19T11:06:24.719Z,96676.63
2023-08-19T11:08:51.338Z,96675.84
2023-08-19T11:11:17.929Z,96675.06
2023-08-19T11:13:44.523Z,96676.97
2023-08-19T11:16:11.143Z,96681.97
2023-08-19T11:18:37.755Z,96675.44
2023-08-19T11:21:04.351Z,96670.81
2023-08-19T11:23:30.952Z,96666.94
2023-08-19T11:25:57.562Z,96672.72
2023-08-19T11:28:24.161Z,96665.03
2023-08-19T11:30:50.852Z,96663.09
2023-08-19T11:33:17.535Z,96665.78
2023-08-19T11:35:44.188Z,96671.19
2023-08-19T11:38:10.789Z,96667.28
2023-08-19T11:40:37.404Z,96672.28
2023-08-19T11:43:03.997Z,96683.06
2023-08-19T11:45:30.643Z,96686.16
2023-08-19T11:47:57.323Z,96685.00
2023-08-19T11:50:23.985Z,96683.06
2023-08-19T11:52:50.607Z,96682.28
2023-08-19T11:55:17.194Z,96674.97
2023-08-19T11:57:43.897Z,96674.16
2023-08-19T12:00:10.524Z,96670.34
2023-08-19T12:02:37.188Z,96667.63
2023-08-19T12:05:03.812Z,96675.69
2023-08-19T12:07:30.423Z,96672.63
2023-08-19T12:09:57.028Z,96666.44
2023-08-19T12:12:23.611Z,96666.81
2023-08-19T12:14:50.208Z,96668.38
2023-08-19T12:17:16.825Z,96669.13
2023-08-19T12:19:43.427Z,96671.44
2023-08-19T12:22:10.029Z,96673.72
2023-08-19T12:24:36.635Z,96671.00
2023-08-19T12:27:03.231Z,96667.53
2023-08-19T12:29:29.836Z,96663.66
2023-08-19T12:31:56.522Z,96673.31
2023-08-19T12:34:23.232Z,96667.94
2023-08-19T12:36:49.834Z,96669.47
2023-08-19T12:39:16.467Z,96673.66
2023-08-19T12:41:43.067Z,96674.06
2023-08-19T12:44:09.712Z,96670.97
2023-08-19T12:46:36.368Z,96664.78
2023-08-19T12:49:02.998Z,96668.66
2023-08-19T12:51:29.612Z,96671.34
2023-08-19T12:53:56.219Z,96665.94
2023-08-19T12:56:22.885Z,96662.50
2023-08-19T12:58:49.577Z,96667.09
2023-08-19T13:01:16.242Z,96662.50
2023-08-19T13:03:42.909Z,96654.03
2023-08-19T13:06:09.553Z,96663.28
2023-08-19T13:08:36.138Z,96657.13
2023-08-19T13:11:02.745Z,96655.19
2023-08-19T13:13:29.368Z,96652.88
2023-08-19T13:15:55.995Z,96651.72
2023-08-19T13:18:22.606Z,96653.22
2023-08-19T13:20:49.214Z,96649.00
2023-08-19T13:23:15.807Z,96652.44
2023-08-19T13:25:42.422Z,96648.59
2023-08-19T13:28:09.049Z,96646.25
2023-08-19T13:30:35.649Z,96647.44
2023-08-19T13:33:02.322Z,96642.03
2023-08-19T13:35:28.937Z,96640.88
2023-08-19T13:37:55.533Z,96633.16
2023-08-19T13:40:22.131Z,96637.00
2023-08-19T13:42:48.737Z,96626.22
2023-08-19T13:45:15.367Z,96635.47
2023-08-19T13:47:42.010Z,96628.94
2023-08-19T13:50:08.632Z,96630.44
2023-08-19T13:52:35.253Z,96631.94
2023-08-19T13:55:01.874Z,96640.06
2023-08-19T13:57:28.478Z,96647.00
2023-08-19T13:59:55.076Z,96643.06
2023-08-19T14:02:21.664Z,96651.47
2023-08-19T14:04:48.278Z,96651.09
2023-08-19T14:07:14.868Z,96643.78
2023-08-19T14:09:41.485Z,96650.31
2023-08-19T14:12:08.118Z,96641.44
2023-08-19T14:14:34.703Z,96645.31
2023-08-19T14:17:01.318Z,96641.44
2023-08-19T14:19:27.922Z,96640.28
2023-08-19T14:21:54.521Z,96634.47
2023-08-19T14:24:21.161Z,96639.84
2023-08-19T14:26:47.751Z,96632.53
2023-08-19T14:29:14.349Z,96639.06
2023-08-19T14:31:41.055Z,96636.38
2023-08-19T14:34:07.693Z,96638.25
2023-08-19T14:36:34.282Z,96632.84
2023-08-19T14:39:00.954Z,96634.00
2023-08-19T14:41:27.558Z,96630.53
2023-08-19T14:43:54.152Z,96625.88
2023-08-19T14:46:20.787Z,96625.09
2023-08-19T14:48:47.389Z,96629.34
2023-08-19T14:51:13.989Z,96625.06
2023-08-19T14:53:40.589Z,96625.47
2023-08-19T14:56:07.189Z,96627.34
2023-08-19T14:58:33.811Z,96616.53
2023-08-19T15:01:00.457Z,96620.78
2023-08-19T15:03:27.198Z,96618.06
2023-08-19T15:05:53.880Z,96618.06
2023-08-19T15:08:20.494Z,96618.41
2023-08-19T15:10:47.089Z,96617.22
2023-08-19T15:13:13.683Z,96614.13
2023-08-19T15:15:40.301Z,96622.22
2023-08-19T15:18:06.965Z,96625.34
2023-08-19T15:20:33.580Z,96621.91
2023-08-19T15:23:00.177Z,96617.31
2023-08-19T15:25:26.787Z,96616.16
2023-08-19T15:27:53.400Z,96614.97
2023-08-19T15:30:20.007Z,96607.69
2023-08-19T15:32:46.676Z,96612.72
2023-08-19T15:35:13.362Z,96612.72
2023-08-19T15:37:39.974Z,96608.03
2023-08-19T15:40:06.559Z,96606.88
2023-08-19T15:42:33.173Z,96602.63
2023-08-19T15:44:59.766Z,96604.19
2023-08-19T15:47:26.380Z,96603.81
2023-08-19T15:49:53.045Z,96605.72
2023-08-19T15:52:19.647Z,96608.41
2023-08-19T15:54:46.236Z,96610.72
2023-08-19T15:57:12.838Z,96605.31
2023-08-19T15:59:39.432Z,96613.75
2023-08-19T16:02:06.022Z,96607.59
2023-08-19T16:04:32.636Z,96607.59
2023-08-19T16:06:59.243Z,96603.34
2023-08-19T16:09:25.838Z,96605.25
2023-08-19T16:11:52.503Z,96603.31
2023-08-19T16:14:19.109Z,96602.97
2023-08-19T16:16:45.769Z,96594.84
2023-08-19T16:19:15.504Z,96601.78
2023-08-19T16:21:42.132Z,96592.53
2023-08-19T16:24:08.737Z,96599.03
2023-08-19T16:26:35.330Z,96599.03
2023-08-19T16:29:01.958Z,96598.25
2023-08-19T16:31:28.628Z,96593.94
2023-08-19T16:33:55.232Z,96595.47
2023-08-19T16:36:21.828Z,96594.31
2023-08-19T16:38:48.434Z,96602.78
2023-08-19T16:41:15.020Z,96592.75
2023-08-19T16:43:41.619Z,96601.63
2023-08-19T16:46:08.237Z,96600.84
2023-08-19T16:48:34.850Z,96598.16
2023-08-19T16:51:01.459Z,96604.72
2023-08-19T16:53:28.080Z,96608.19
2023-08-19T16:55:54.681Z,96598.91
2023-08-19T16:58:21.282Z,96597.00
2023-08-19T17:00:47.944Z,96599.72
2023-08-19T17:03:14.602Z,96599.72
2023-08-19T17:05:41.192Z,96610.53
2023-08-19T17:08:08.555Z,96609.75
2023-08-19T17:10:35.161Z,96595.06
2023-08-19T17:13:01.770Z,96601.66
2023-08-19T17:15:28.383Z,96612.44
2023-08-19T17:17:55.043Z,96612.81
2023-08-19T17:20:21.675Z,96616.28
2023-08-19T17:22:48.268Z,96614.75
2023-08-19T17:25:14.876Z,96614.81
2023-08-19T17:27:41.488Z,96621.31
2023-08-19T17:30:08.096Z,96618.63
2023-08-19T17:32:34.762Z,96627.13
2023-08-19T17:35:01.366Z,96624.03
2023-08-19T17:37:28.042Z,96622.50
2023-08-19T17:39:54.629Z,96622.50
2023-08-19T17:42:21.253Z,96626.38
2023-08-19T17:44:47.859Z,96625.97
2023-08-19T17:47:14.496Z,96624.44
2023-08-19T17:49:41.116Z,96623.66
2023-08-19T17:52:07.722Z,96628.31
2023-08-19T17:54:34.361Z,96624.88
2023-08-19T17:57:00.972Z,96629.50
2023-08-19T17:59:27.573Z,96627.56
2023-08-19T18:01:54.211Z,96627.19
2023-08-19T18:04:20.850Z,96624.88
2023-08-19T18:06:47.466Z,96629.50
2023-08-19T18:09:14.065Z,96635.34
2023-08-19T18:11:40.651Z,96626.81
2023-08-19T18:14:07.244Z,96634.91
2023-08-19T18:16:33.842Z,96629.19
2023-08-19T18:19:00.438Z,96631.44
2023-08-19T18:21:27.044Z,96630.34
2023-08-19T18:23:53.644Z,96623.03
2023-08-19T18:26:20.236Z,96628.84
2023-08-19T18:28:46.835Z,96628.09
2023-08-19T18:31:13.464Z,96630.41
2023-08-19T18:33:40.087Z,96635.81
2023-08-19T18:36:06.694Z,96638.91
2023-08-19T18:38:33.306Z,96640.44
2023-08-19T18:40:59.902Z,96644.63
2023-08-19T18:43:26.539Z,96648.56
2023-08-19T18:45:53.171Z,96647.41
2023-08-19T18:48:19.916Z,96654.34
2023-08-19T18:50:46.585Z,96656.63
2023-08-19T18:53:13.206Z,96655.56
2023-08-19T18:55:39.817Z,96658.25
2023-08-19T18:58:06.468Z,96659.34
2023-08-19T19:00:33.095Z,96661.28
2023-08-19T19:02:59.858Z,96664.75
2023-08-19T19:05:26.579Z,96659.28
2023-08-19T19:07:53.187Z,96669.38
2023-08-19T19:10:19.798Z,96671.72
2023-08-19T19:12:46.468Z,96679.00
2023-08-19T19:15:13.056Z,96677.06
2023-08-19T19:17:39.678Z,96673.91
2023-08-19T19:20:06.301Z,96676.66
2023-08-19T19:22:32.929Z,96675.91
2023-08-19T19:24:59.529Z,96684.00
2023-08-19T19:27:26.145Z,96686.31
2023-08-19T19:29:52.745Z,96688.25
2023-08-19T19:32:19.336Z,96699.03
2023-08-19T19:34:45.965Z,96699.03
2023-08-19T19:37:12.577Z,96705.22
2023-08-19T19:39:39.186Z,96704.06
2023-08-19T19:42:05.796Z,96705.97
2023-08-19T19:44:32.392Z,96712.56
2023-08-19T19:46:59.004Z,96715.63
2023-08-19T19:49:25.637Z,96708.69
2023-08-19T19:51:52.249Z,96715.19
2023-08-19T19:54:18.856Z,96711.72
2023-08-19T19:56:45.450Z,96716.41
2023-08-19T19:59:12.047Z,96724.50
2023-08-19T20:01:38.651Z,96732.19
2023-08-19T20:04:05.371Z,96735.63
2023-08-19T20:06:32.035Z,96734.88
2023-08-19T20:08:58.865Z,96737.59
2023-08-19T20:11:25.507Z,96731.84
2023-08-19T20:13:52.107Z,96733.72
2023-08-19T20:16:18.745Z,96727.94
2023-08-19T20:18:45.396Z,96736.03
2023-08-19T20:21:12.079Z,96734.13
2023-08-19T20:23:38.706Z,96739.13
2023-08-19T20:26:05.306Z,96749.94
2023-08-19T20:28:31.919Z,96742.22
2023-08-19T20:30:58.539Z,96744.91
2023-08-19T20:33:25.144Z,96750.75
2023-08-19T20:35:54.521Z,96756.53
2023-08-19T20:38:21.487Z,96759.63
2023-08-19T20:40:48.094Z,96761.13
2023-08-19T20:43:14.701Z,96766.19
2023-08-19T20:45:41.306Z,96753.44
2023-08-19T20:48:07.979Z,96759.63
2023-08-19T20:50:34.641Z,96756.16
2023-08-19T20:53:01.265Z,96760.78
2023-08-19T20:55:27.867Z,96766.22
2023-08-19T20:57:54.447Z,96765.34
2023-08-19T21:00:21.052Z,96764.16
2023-08-19T21:02:47.680Z,96763.06
2023-08-19T21:05:14.288Z,96759.19
2023-08-19T21:07:40.893Z,96760.75
2023-08-19T21:10:07.492Z,96762.28
2023-08-19T21:12:34.089Z,96759.97
2023-08-19T21:15:00.706Z,96765.34
2023-08-19T21:17:27.369Z,96763.41
2023-08-19T21:19:53.992Z,96763.44
2023-08-19T21:22:20.593Z,96764.97
2023-08-19T21:24:47.200Z,96769.66
2023-08-19T21:27:13.790Z,96763.44
2023-08-19T21:29:40.387Z,96766.50
2023-08-19T21:32:06.998Z,96772.72
2023-08-19T21:34:33.623Z,96768.47
2023-08-19T21:37:00.233Z,96764.25
2023-08-19T21:39:26.823Z,96766.53
2023-08-19T21:41:56.206Z,96761.91
2023-08-19T21:44:22.810Z,96763.50
2023-08-19T21:46:49.416Z,96763.06
2023-08-19T21:49:16.044Z,96764.22
2023-08-19T21:51:42.657Z,96763.84
2023-08-19T21:54:09.272Z,96764.97
2023-08-19T21:56:35.874Z,96768.41
2023-08-19T21:59:02.656Z,96767.63
2023-08-19T22:01:29.332Z,96767.63
2023-08-19T22:03:55.960Z,96776.94
2023-08-19T22:06:22.564Z,96772.25
2023-08-19T22:08:49.166Z,96774.97
2023-08-19T22:11:17.585Z,96773.47
2023-08-19T22:13:44.393Z,96774.22
2023-08-19T22:16:11.045Z,96770.75
2023-08-19T22:18:37.664Z,96778.03
2023-08-19T22:21:04.285Z,96773.09
2023-08-19T22:23:30.882Z,96785.00
2023-08-19T22:25:57.475Z,96783.84
2023-08-19T22:28:24.074Z,96782.34
2023-08-19T22:30:50.734Z,96783.06
2023-08-19T22:33:17.378Z,96782.28
2023-08-19T22:35:43.991Z,96786.88
2023-08-19T22:38:10.623Z,96785.38
2023-08-19T22:40:37.244Z,96780.69
2023-08-19T22:43:03.836Z,96783.06
2023-08-19T22:45:30.443Z,96788.09
2023-08-19T22:47:57.062Z,96794.63
2023-08-19T22:50:23.719Z,96791.94
2023-08-19T22:52:50.328Z,96787.31
2023-08-19T22:55:16.937Z,96792.31
2023-08-19T22:57:43.541Z,96796.16
2023-08-19T23:00:10.265Z,96793.03
2023-08-19T23:02:36.940Z,96795.34
2023-08-19T23:05:03.670Z,96802.31
2023-08-19T23:07:31.121Z,96804.69
2023-08-19T23:09:59.312Z,96803.94
2023-08-19T23:12:25.931Z,96792.38
2023-08-19T23:14:52.537Z,96806.28
2023-08-19T23:17:19.150Z,96800.50
2023-08-19T23:19:45.762Z,96803.19
2023-08-19T23:22:12.371Z,96796.63
2023-08-19T23:24:38.970Z,96795.09
2023-08-19T23:27:05.569Z,96783.13
2023-08-19T23:29:32.184Z,96784.34
2023-08-19T23:31:58.856Z,96785.53
2023-08-19T23:34:25.529Z,96779.38
2023-08-19T23:36:52.145Z,96784.00
2023-08-19T23:39:18.784Z,96790.53
2023-08-19T23:41:45.425Z,96777.91
2023-08-19T23:44:12.047Z,96789.78
2023-08-19T23:46:38.640Z,96797.53
2023-08-19T23:49:05.276Z,96788.25
2023-08-19T23:51:31.871Z,96796.75
2023-08-19T23:53:58.528Z,96785.56
2023-08-19T23:56:25.141Z,96789.03
2023-08-19T23:58:51.748Z,96787.88
